createdAt,value
2022-08-01T00:00:14.479Z,60.70
2022-08-01T00:03:03.312Z,60.40
2022-08-01T00:05:32.726Z,61.10
2022-08-01T00:08:01.408Z,61.80
2022-08-01T00:10:30.284Z,62.60
2022-08-01T00:13:00.434Z,62.70
2022-08-01T00:15:29.035Z,62.80
2022-08-01T00:17:57.610Z,62.70
2022-08-01T00:20:26.785Z,62.30
2022-08-01T00:22:55.386Z,63.60
2022-08-01T00:25:34.453Z,63.50
2022-08-01T00:28:05.558Z,63.90
2022-08-01T00:30:34.153Z,62.80
2022-08-01T00:33:02.934Z,63.20
2022-08-01T00:35:31.776Z,62.70
2022-08-01T00:38:00.432Z,62.40
2022-08-01T00:40:29.052Z,62.70
2022-08-01T00:42:58.048Z,63.40
2022-08-01T00:45:28.273Z,64.10
2022-08-01T00:47:56.946Z,63.60
2022-08-01T00:50:26.224Z,63.50
2022-08-01T00:52:57.424Z,62.90
2022-08-01T00:55:27.008Z,62.90
2022-08-01T00:58:03.681Z,62.20
2022-08-01T01:00:52.489Z,61.80
2022-08-01T01:06:29.099Z,61.90
2022-08-01T01:09:19.185Z,60.80
2022-08-01T01:12:14.231Z,60.70
2022-08-01T01:14:53.263Z,61.00
2022-08-01T01:17:50.585Z,60.90
2022-08-01T01:20:26.072Z,60.80
2022-08-01T01:23:12.457Z,60.90
2022-08-01T01:26:11.116Z,61.50
2022-08-01T01:29:10.856Z,60.00
2022-08-01T01:31:48.131Z,59.80
2022-08-01T01:34:23.398Z,60.00
2022-08-01T01:36:56.917Z,59.60
2022-08-01T01:39:30.433Z,60.40
2022-08-01T01:42:01.544Z,60.10
2022-08-01T01:44:33.919Z,60.60
2022-08-01T01:47:03.788Z,60.20
2022-08-01T01:49:35.111Z,60.00
2022-08-01T01:52:06.453Z,60.30
2022-08-01T01:54:39.534Z,59.80
2022-08-01T01:57:11.420Z,60.30
2022-08-01T01:59:44.165Z,59.80
2022-08-01T02:02:17.188Z,60.30
2022-08-01T02:04:49.581Z,59.70
2022-08-01T02:07:26.113Z,60.10
2022-08-01T02:09:56.702Z,59.30
2022-08-01T02:12:26.988Z,59.60
2022-08-01T02:14:59.519Z,59.00
2022-08-01T02:17:30.456Z,58.60
2022-08-01T02:19:59.806Z,58.90
2022-08-01T02:22:34.394Z,59.00
2022-08-01T02:25:12.145Z,58.80
2022-08-01T02:27:47.918Z,59.70
2022-08-01T02:30:18.482Z,59.10
2022-08-01T02:32:53.226Z,58.90
2022-08-01T02:35:27.446Z,58.80
2022-08-01T02:38:00.858Z,58.90
2022-08-01T02:40:34.770Z,59.40
2022-08-01T02:43:07.396Z,59.40
2022-08-01T02:45:44.524Z,59.40
2022-08-01T02:48:17.343Z,59.30
2022-08-01T02:50:51.594Z,58.70
2022-08-01T02:53:39.120Z,59.00
2022-08-01T02:56:15.600Z,59.00
2022-08-01T02:58:46.705Z,59.80
2022-08-01T03:01:20.734Z,59.10
2022-08-01T03:03:50.294Z,59.60
2022-08-01T03:06:20.273Z,59.70
2022-08-01T03:08:50.815Z,59.90
2022-08-01T03:11:21.544Z,60.10
2022-08-01T03:13:54.014Z,59.80
2022-08-01T03:16:28.495Z,60.20
2022-08-01T03:18:59.085Z,60.10
2022-08-01T03:21:29.933Z,60.10
2022-08-01T03:24:02.279Z,59.80
2022-08-01T03:26:35.701Z,60.00
2022-08-01T03:29:08.441Z,60.20
2022-08-01T03:31:43.777Z,59.90
2022-08-01T03:34:13.049Z,59.40
2022-08-01T03:36:50.288Z,59.30
2022-08-01T03:39:24.604Z,59.60
2022-08-01T03:42:00.091Z,59.80
2022-08-01T03:44:35.955Z,61.20
2022-08-01T03:47:10.619Z,61.10
2022-08-01T03:49:46.231Z,61.30
2022-08-01T03:52:16.360Z,61.80
2022-08-01T03:54:51.362Z,61.10
2022-08-01T03:57:36.050Z,60.70
2022-08-01T04:00:09.982Z,60.80
2022-08-01T04:02:43.995Z,61.10
2022-08-01T04:05:13.260Z,60.30
2022-08-01T04:07:44.083Z,60.50
2022-08-01T04:10:13.710Z,61.00
2022-08-01T04:12:42.318Z,61.10
2022-08-01T04:15:11.146Z,61.00
2022-08-01T04:17:40.414Z,60.90
2022-08-01T04:20:13.089Z,60.50
2022-08-01T04:22:42.478Z,61.00
2022-08-01T04:25:21.636Z,61.00
2022-08-01T04:27:54.288Z,60.90
2022-08-01T04:30:29.320Z,60.60
2022-08-01T04:33:02.367Z,60.70
2022-08-01T04:36:02.490Z,60.40
2022-08-01T04:38:29.030Z,61.10
2022-08-01T04:40:59.368Z,61.30
2022-08-01T04:43:38.524Z,60.20
2022-08-01T04:46:09.001Z,61.20
2022-08-01T04:48:40.887Z,60.20
2022-08-01T04:51:17.247Z,59.80
2022-08-01T04:53:47.815Z,59.40
2022-08-01T04:56:16.941Z,59.30
2022-08-01T04:58:46.238Z,59.10
2022-08-01T05:01:15.768Z,59.20
2022-08-01T05:03:45.120Z,59.40
2022-08-01T05:06:15.996Z,59.00
2022-08-01T05:08:44.608Z,59.30
2022-08-01T05:11:13.488Z,59.40
2022-08-01T05:13:42.058Z,59.10
2022-08-01T05:16:10.876Z,60.00
2022-08-01T05:18:39.673Z,60.80
2022-08-01T05:21:09.102Z,61.00
2022-08-01T05:23:43.262Z,61.10
2022-08-01T05:26:15.028Z,61.10
2022-08-01T05:28:44.503Z,61.10
2022-08-01T05:31:13.469Z,60.80
2022-08-01T05:33:42.092Z,59.90
2022-08-01T05:36:10.781Z,60.50
2022-08-01T05:38:40.905Z,60.70
2022-08-01T05:41:09.568Z,60.50
2022-08-01T05:43:38.215Z,60.10
2022-08-01T05:46:07.050Z,59.60
2022-08-01T05:48:35.661Z,59.60
2022-08-01T05:51:04.717Z,58.80
2022-08-01T05:53:35.355Z,59.10
2022-08-01T05:56:05.969Z,60.30
2022-08-01T05:58:34.853Z,58.60
2022-08-01T06:01:03.430Z,58.30
2022-08-01T06:03:34.258Z,59.00
2022-08-01T06:06:03.132Z,59.40
2022-08-01T06:08:32.278Z,59.00
2022-08-01T06:11:01.253Z,58.60
2022-08-01T06:13:31.560Z,58.50
2022-08-01T06:16:00.212Z,58.90
2022-08-01T06:18:28.807Z,58.40
2022-08-01T06:20:57.619Z,59.20
2022-08-01T06:23:32.272Z,58.90
2022-08-01T06:26:01.822Z,58.90
2022-08-01T06:28:31.981Z,59.50
2022-08-01T06:31:01.204Z,59.80
2022-08-01T06:33:30.461Z,60.80
2022-08-01T06:35:59.096Z,61.90
2022-08-01T06:38:27.696Z,63.20
2022-08-01T06:40:56.588Z,62.50
2022-08-01T06:43:25.368Z,61.60
2022-08-01T06:45:55.480Z,61.10
2022-08-01T06:48:24.611Z,59.60
2022-08-01T06:51:08.774Z,60.70
2022-08-01T06:53:39.692Z,58.80
2022-08-01T06:56:09.706Z,59.50
2022-08-01T06:58:39.071Z,60.40
2022-08-01T07:01:09.514Z,59.20
2022-08-01T07:03:53.429Z,59.30
2022-08-01T07:06:26.165Z,58.00
2022-08-01T07:08:55.581Z,59.00
2022-08-01T07:11:25.991Z,58.80
2022-08-01T07:13:54.817Z,57.30
2022-08-01T07:16:24.782Z,56.80
2022-08-01T07:18:53.367Z,57.40
2022-08-01T07:21:40.055Z,58.30
2022-08-01T07:24:13.957Z,57.20
2022-08-01T07:26:52.899Z,57.70
2022-08-01T07:29:25.182Z,55.40
2022-08-01T07:31:57.530Z,56.10
2022-08-01T07:34:27.553Z,56.00
2022-08-01T07:36:56.396Z,56.70
2022-08-01T07:39:25.098Z,56.00
2022-08-01T07:42:06.118Z,56.90
2022-08-01T07:44:37.426Z,56.50
2022-08-01T07:47:08.429Z,56.10
2022-08-01T07:49:40.376Z,57.70
2022-08-01T07:52:10.565Z,56.80
2022-08-01T07:54:39.197Z,58.20
2022-08-01T07:57:08.305Z,56.40
2022-08-01T07:59:37.497Z,54.10
2022-08-01T08:02:08.068Z,53.30
2022-08-01T08:04:36.823Z,51.80
2022-08-01T08:07:06.214Z,50.40
2022-08-01T08:09:37.958Z,49.20
2022-08-01T08:12:09.115Z,50.20
2022-08-01T08:14:38.656Z,49.80
2022-08-01T08:17:09.122Z,48.00
2022-08-01T08:19:39.777Z,48.10
2022-08-01T08:22:10.374Z,50.10
2022-08-01T08:24:45.465Z,49.80
2022-08-01T08:27:16.549Z,47.60
2022-08-01T08:29:45.342Z,47.90
2022-08-01T08:32:15.476Z,48.40
2022-08-01T08:34:44.744Z,48.90
2022-08-01T08:37:13.904Z,47.70
2022-08-01T08:39:42.745Z,46.80
2022-08-01T08:42:13.173Z,48.60
2022-08-01T08:44:44.669Z,47.40
2022-08-01T08:47:20.283Z,48.30
2022-08-01T08:49:51.559Z,45.60
2022-08-01T08:52:22.817Z,46.50
2022-08-01T08:54:53.720Z,44.60
2022-08-01T08:57:23.508Z,44.50
2022-08-01T08:59:55.170Z,46.80
2022-08-01T09:02:25.722Z,45.10
2022-08-01T09:04:54.800Z,46.60
2022-08-01T09:07:23.948Z,44.80
2022-08-01T09:09:53.134Z,44.50
2022-08-01T09:12:22.656Z,46.00
2022-08-01T09:14:54.517Z,43.10
2022-08-01T09:17:25.420Z,43.00
2022-08-01T09:19:57.671Z,41.90
2022-08-01T09:22:27.332Z,39.90
2022-08-01T09:25:09.589Z,41.30
2022-08-01T09:27:44.137Z,42.30
2022-08-01T16:05:23.587Z,45.80
2022-08-01T16:07:59.960Z,45.60
2022-08-01T16:10:30.714Z,44.80
2022-08-01T16:13:05.898Z,45.80
2022-08-01T16:15:37.700Z,46.30
2022-08-01T16:18:08.158Z,46.40
2022-08-01T16:20:44.356Z,46.80
2022-08-01T16:23:14.215Z,47.30
2022-08-01T16:25:43.814Z,47.40
2022-08-01T16:28:14.090Z,47.50
2022-08-01T16:30:50.968Z,47.70
2022-08-01T16:33:46.959Z,48.40
2022-08-01T16:36:24.846Z,46.80
2022-08-01T16:38:53.821Z,46.00
2022-08-01T16:41:22.712Z,46.60
2022-08-01T16:43:53.447Z,46.90
2022-08-01T16:46:25.056Z,47.90
2022-08-01T16:48:55.178Z,46.50
2022-08-01T16:51:25.331Z,46.40
2022-08-01T16:53:54.095Z,48.80
2022-08-01T16:56:22.955Z,47.20
2022-08-01T16:58:51.559Z,46.70
2022-08-01T17:02:00.239Z,47.00
2022-08-01T17:04:09.058Z,46.20
2022-08-01T17:06:39.054Z,46.50
2022-08-01T17:09:09.306Z,46.60
2022-08-01T17:11:38.100Z,47.20
2022-08-01T17:14:06.844Z,48.10
2022-08-01T17:16:35.962Z,49.70
2022-08-01T17:19:05.025Z,49.10
2022-08-01T17:21:33.669Z,49.60
2022-08-01T17:24:03.641Z,50.00
2022-08-01T17:26:32.567Z,50.20
2022-08-01T17:29:01.086Z,49.80
2022-08-01T17:31:29.849Z,49.90
2022-08-01T17:33:59.247Z,49.60
2022-08-01T17:36:28.269Z,50.10
2022-08-01T17:38:57.007Z,50.50
2022-08-01T17:41:27.201Z,50.20
2022-08-01T17:43:55.849Z,50.90
2022-08-01T17:46:24.609Z,49.70
2022-08-01T17:48:53.380Z,50.40
2022-08-01T17:51:22.924Z,50.90
2022-08-01T17:53:55.490Z,51.30
2022-08-01T17:56:28.481Z,50.90
2022-08-01T17:58:57.965Z,51.50
2022-08-01T18:01:27.517Z,51.70
2022-08-01T18:03:58.479Z,51.50
2022-08-01T18:06:28.451Z,51.50
2022-08-01T18:08:59.714Z,51.30
2022-08-01T18:11:37.343Z,51.30
2022-08-01T18:14:07.151Z,51.40
2022-08-01T18:16:35.845Z,51.50
2022-08-01T18:19:06.980Z,51.30
2022-08-01T18:21:38.662Z,51.40
2022-08-01T18:24:11.142Z,51.20
2022-08-01T18:26:41.299Z,52.30
2022-08-01T18:29:10.377Z,52.40
2022-08-01T18:31:41.151Z,52.30
2022-08-01T18:34:09.771Z,52.30
2022-08-01T18:36:40.391Z,52.90
2022-08-01T18:39:10.887Z,53.20
2022-08-01T18:41:41.519Z,53.40
2022-08-01T18:44:10.106Z,53.00
2022-08-01T18:46:40.135Z,52.20
2022-08-01T18:49:12.437Z,52.90
2022-08-01T18:51:44.783Z,53.20
2022-08-01T18:54:15.529Z,53.30
2022-08-01T18:56:46.264Z,53.00
2022-08-01T18:59:15.258Z,52.70
2022-08-01T19:01:44.715Z,52.80
2022-08-01T19:04:13.885Z,53.40
2022-08-01T19:06:43.345Z,53.80
2022-08-01T19:09:20.429Z,53.30
2022-08-01T19:11:51.036Z,54.00
2022-08-01T19:14:19.797Z,53.30
2022-08-01T19:16:48.807Z,53.20
2022-08-01T19:19:24.745Z,53.20
2022-08-01T19:21:57.052Z,53.60
2022-08-01T19:24:25.863Z,54.20
2022-08-01T19:26:58.764Z,53.90
2022-08-01T19:29:37.956Z,54.30
2022-08-01T19:32:10.252Z,54.10
2022-08-01T19:34:49.854Z,53.90
2022-08-01T19:37:21.080Z,53.90
2022-08-01T19:39:52.954Z,54.40
2022-08-01T19:42:25.652Z,54.50
2022-08-01T19:44:55.692Z,54.20
2022-08-01T19:47:24.270Z,54.90
2022-08-01T19:49:52.974Z,54.80
2022-08-01T19:52:27.879Z,54.50
2022-08-01T19:54:58.041Z,54.90
2022-08-01T19:57:28.663Z,55.10
2022-08-01T20:00:28.103Z,55.20
2022-08-01T20:03:00.485Z,55.10
2022-08-01T20:05:29.296Z,55.40
2022-08-01T20:07:59.770Z,55.00
2022-08-01T20:10:30.136Z,55.00
2022-08-01T20:13:01.130Z,55.50
2022-08-01T20:15:30.576Z,55.50
2022-08-01T20:17:59.858Z,55.40
2022-08-01T20:20:29.004Z,55.10
2022-08-01T20:22:58.972Z,55.00
2022-08-01T20:25:40.237Z,54.80
2022-08-01T20:28:13.895Z,55.10
2022-08-01T20:30:44.231Z,54.90
2022-08-01T20:33:13.433Z,55.00
2022-08-01T20:35:51.645Z,55.00
2022-08-01T20:38:24.747Z,55.00
2022-08-01T20:40:58.806Z,55.30
2022-08-01T20:43:29.402Z,55.40
2022-08-01T20:45:59.212Z,55.30
2022-08-01T20:48:31.279Z,55.60
2022-08-01T20:51:17.648Z,55.50
2022-08-01T20:53:49.220Z,55.50
2022-08-01T20:56:27.243Z,55.50
2022-08-01T20:59:10.819Z,55.40
2022-08-01T21:02:08.810Z,55.40
2022-08-01T21:04:54.516Z,55.30
2022-08-01T21:07:29.272Z,55.40
2022-08-01T21:10:07.006Z,55.60
2022-08-01T21:12:45.167Z,55.50
2022-08-01T21:15:28.348Z,55.40
2022-08-01T21:18:05.541Z,55.50
2022-08-01T21:20:41.345Z,55.60
2022-08-01T21:23:28.640Z,55.50
2022-08-01T21:25:59.959Z,56.60
2022-08-01T21:28:29.576Z,55.60
2022-08-01T21:31:00.745Z,55.80
2022-08-01T21:33:30.402Z,55.80
2022-08-01T21:36:06.139Z,55.80
2022-08-01T21:38:40.166Z,55.80
2022-08-01T21:41:09.749Z,55.80
2022-08-01T21:43:39.479Z,55.70
2022-08-01T21:46:11.903Z,56.10
2022-08-01T21:48:43.110Z,56.10
2022-08-01T21:51:29.513Z,56.10
2022-08-01T21:54:11.268Z,56.00
2022-08-01T21:56:54.209Z,56.10
2022-08-01T21:59:33.508Z,56.40
2022-08-01T22:02:12.501Z,56.30
2022-08-01T22:04:49.363Z,56.40
2022-08-01T22:07:19.609Z,56.40
2022-08-01T22:09:51.483Z,56.10
2022-08-01T22:12:22.063Z,56.20
2022-08-01T22:14:55.217Z,56.40
2022-08-01T22:17:25.943Z,56.40
2022-08-01T22:19:56.300Z,56.50
2022-08-01T22:22:44.481Z,56.80
2022-08-01T22:25:17.586Z,57.00
2022-08-01T22:28:08.536Z,57.20
2022-08-01T22:30:41.502Z,57.20
2022-08-01T22:33:16.893Z,57.30
2022-08-01T22:35:49.880Z,57.40
2022-08-01T22:38:20.877Z,57.60
2022-08-01T22:40:54.588Z,57.60
2022-08-01T22:43:36.366Z,57.60
2022-08-01T22:46:26.602Z,57.60
2022-08-01T22:49:08.878Z,57.50
2022-08-01T22:51:54.799Z,57.50
2022-08-01T22:54:31.217Z,57.60
2022-08-01T22:57:07.529Z,57.50
2022-08-01T22:59:49.506Z,57.50
2022-08-01T23:02:20.615Z,57.60
2022-08-01T23:04:58.417Z,57.50
2022-08-01T23:07:35.478Z,57.60
2022-08-01T23:10:07.444Z,57.50
2022-08-01T23:12:37.660Z,57.40
2022-08-01T23:15:08.842Z,57.30
2022-08-01T23:17:39.159Z,57.20
2022-08-01T23:20:10.860Z,57.30
2022-08-01T23:22:42.415Z,57.20
2022-08-01T23:25:15.309Z,57.00
2022-08-01T23:27:55.738Z,56.80
2022-08-01T23:30:36.867Z,56.90
2022-08-01T23:33:06.020Z,57.70
2022-08-01T23:35:38.926Z,57.10
2022-08-01T23:38:10.185Z,57.00
2022-08-01T23:40:40.034Z,56.90
2022-08-01T23:43:16.063Z,56.80
2022-08-01T23:46:03.918Z,56.90
2022-08-01T23:48:35.138Z,57.00
2022-08-01T23:51:05.908Z,57.00
2022-08-01T23:53:37.640Z,57.00
2022-08-01T23:56:07.595Z,56.70
2022-08-01T23:58:36.465Z,56.80
